sensor_id;sensor_type;location;lat;lon;timestamp;P1;durP1;ratioP1;P2;durP2;ratioP2
30398;SDS011;17195;50.838;7.214;2023-05-14T00:00:42;11.52;;;10.30;;
30398;SDS011;17195;50.838;7.214;2023-05-14T00:03:08;15.73;;;10.70;;
30398;SDS011;17195;50.838;7.214;2023-05-14T00:05:34;11.95;;;10.18;;
30398;SDS011;17195;50.838;7.214;2023-05-14T00:07:59;15.73;;;10.43;;
30398;SDS011;17195;50.838;7.214;2023-05-14T00:10:25;13.48;;;10.27;;
30398;SDS011;17195;50.838;7.214;2023-05-14T00:12:51;12.93;;;10.70;;
30398;SDS011;17195;50.838;7.214;2023-05-14T00:15:17;11.45;;;10.35;;
30398;SDS011;17195;50.838;7.214;2023-05-14T00:17:42;11.30;;;9.65;;
30398;SDS011;17195;50.838;7.214;2023-05-14T00:20:08;13.90;;;10.25;;
30398;SDS011;17195;50.838;7.214;2023-05-14T00:22:36;12.93;;;9.50;;
30398;SDS011;17195;50.838;7.214;2023-05-14T00:25:02;15.70;;;10.68;;
30398;SDS011;17195;50.838;7.214;2023-05-14T00:27:27;12.93;;;9.45;;
30398;SDS011;17195;50.838;7.214;2023-05-14T00:29:53;11.82;;;9.52;;
30398;SDS011;17195;50.838;7.214;2023-05-14T00:32:18;11.15;;;9.55;;
30398;SDS011;17195;50.838;7.214;2023-05-14T00:34:44;10.23;;;9.13;;
30398;SDS011;17195;50.838;7.214;2023-05-14T00:37:10;12.88;;;9.52;;
30398;SDS011;17195;50.838;7.214;2023-05-14T00:39:35;14.90;;;10.25;;
30398;SDS011;17195;50.838;7.214;2023-05-14T00:42:01;14.52;;;10.20;;
30398;SDS011;17195;50.838;7.214;2023-05-14T00:44:26;17.02;;;10.50;;
30398;SDS011;17195;50.838;7.214;2023-05-14T00:46:52;18.63;;;10.70;;
30398;SDS011;17195;50.838;7.214;2023-05-14T00:49:18;15.77;;;11.40;;
30398;SDS011;17195;50.838;7.214;2023-05-14T00:51:44;22.30;;;11.82;;
30398;SDS011;17195;50.838;7.214;2023-05-14T00:54:12;18.92;;;12.52;;
30398;SDS011;17195;50.838;7.214;2023-05-14T00:56:39;18.35;;;11.27;;
30398;SDS011;17195;50.838;7.214;2023-05-14T00:59:05;19.50;;;11.63;;
30398;SDS011;17195;50.838;7.214;2023-05-14T01:01:30;15.07;;;11.05;;
30398;SDS011;17195;50.838;7.214;2023-05-14T01:03:56;17.52;;;11.40;;
30398;SDS011;17195;50.838;7.214;2023-05-14T01:12:02;21.08;;;13.07;;
30398;SDS011;17195;50.838;7.214;2023-05-14T01:17:37;20.67;;;12.43;;
30398;SDS011;17195;50.838;7.214;2023-05-14T01:20:10;21.90;;;13.32;;
30398;SDS011;17195;50.838;7.214;2023-05-14T01:22:36;20.02;;;13.02;;
30398;SDS011;17195;50.838;7.214;2023-05-14T01:25:02;23.75;;;13.52;;
30398;SDS011;17195;50.838;7.214;2023-05-14T01:30:25;20.90;;;13.27;;
30398;SDS011;17195;50.838;7.214;2023-05-14T01:32:59;21.92;;;13.15;;
30398;SDS011;17195;50.838;7.214;2023-05-14T01:35:28;19.15;;;12.80;;
30398;SDS011;17195;50.838;7.214;2023-05-14T01:37:55;17.73;;;12.07;;
30398;SDS011;17195;50.838;7.214;2023-05-14T01:40:25;15.52;;;11.23;;
30398;SDS011;17195;50.838;7.214;2023-05-14T01:42:51;16.80;;;12.00;;
30398;SDS011;17195;50.838;7.214;2023-05-14T01:45:21;15.40;;;12.02;;
30398;SDS011;17195;50.838;7.214;2023-05-14T01:47:48;12.90;;;11.10;;
30398;SDS011;17195;50.838;7.214;2023-05-14T01:50:14;13.63;;;10.57;;
30398;SDS011;17195;50.838;7.214;2023-05-14T01:52:40;16.95;;;10.73;;
30398;SDS011;17195;50.838;7.214;2023-05-14T01:55:06;13.30;;;10.50;;
30398;SDS011;17195;50.838;7.214;2023-05-14T01:57:32;13.40;;;10.13;;
30398;SDS011;17195;50.838;7.214;2023-05-14T01:59:57;11.35;;;9.45;;
30398;SDS011;17195;50.838;7.214;2023-05-14T02:02:23;10.40;;;8.93;;
30398;SDS011;17195;50.838;7.214;2023-05-14T02:04:49;10.30;;;9.05;;
30398;SDS011;17195;50.838;7.214;2023-05-14T02:07:15;12.98;;;9.25;;
30398;SDS011;17195;50.838;7.214;2023-05-14T02:09:41;8.80;;;7.90;;
30398;SDS011;17195;50.838;7.214;2023-05-14T02:12:07;9.82;;;8.82;;
30398;SDS011;17195;50.838;7.214;2023-05-14T02:14:33;10.60;;;8.40;;
30398;SDS011;17195;50.838;7.214;2023-05-14T02:16:58;9.93;;;8.88;;
30398;SDS011;17195;50.838;7.214;2023-05-14T02:19:24;9.25;;;8.35;;
30398;SDS011;17195;50.838;7.214;2023-05-14T02:21:50;10.68;;;8.68;;
30398;SDS011;17195;50.838;7.214;2023-05-14T02:24:15;10.05;;;8.88;;
30398;SDS011;17195;50.838;7.214;2023-05-14T02:26:41;10.45;;;9.10;;
30398;SDS011;17195;50.838;7.214;2023-05-14T02:29:07;10.77;;;7.97;;
30398;SDS011;17195;50.838;7.214;2023-05-14T02:31:32;9.70;;;8.50;;
30398;SDS011;17195;50.838;7.214;2023-05-14T02:33:59;10.88;;;8.15;;
30398;SDS011;17195;50.838;7.214;2023-05-14T02:36:25;12.02;;;8.40;;
30398;SDS011;17195;50.838;7.214;2023-05-14T02:38:51;12.13;;;8.90;;
30398;SDS011;17195;50.838;7.214;2023-05-14T02:41:16;9.88;;;8.40;;
30398;SDS011;17195;50.838;7.214;2023-05-14T02:43:42;11.63;;;8.68;;
30398;SDS011;17195;50.838;7.214;2023-05-14T02:46:07;11.25;;;8.48;;
30398;SDS011;17195;50.838;7.214;2023-05-14T02:48:33;8.98;;;8.05;;
30398;SDS011;17195;50.838;7.214;2023-05-14T02:50:58;10.02;;;8.35;;
30398;SDS011;17195;50.838;7.214;2023-05-14T02:53:24;8.65;;;7.65;;
30398;SDS011;17195;50.838;7.214;2023-05-14T02:55:50;9.63;;;8.60;;
30398;SDS011;17195;50.838;7.214;2023-05-14T02:58:15;8.85;;;7.75;;
30398;SDS011;17195;50.838;7.214;2023-05-14T03:00:41;9.57;;;8.43;;
30398;SDS011;17195;50.838;7.214;2023-05-14T03:03:07;8.93;;;8.02;;
30398;SDS011;17195;50.838;7.214;2023-05-14T03:05:32;10.00;;;9.00;;
30398;SDS011;17195;50.838;7.214;2023-05-14T03:07:58;12.65;;;8.80;;
30398;SDS011;17195;50.838;7.214;2023-05-14T03:10:24;8.63;;;7.72;;
30398;SDS011;17195;50.838;7.214;2023-05-14T03:12:50;10.10;;;8.40;;
30398;SDS011;17195;50.838;7.214;2023-05-14T03:15:16;8.98;;;8.07;;
30398;SDS011;17195;50.838;7.214;2023-05-14T03:17:41;8.40;;;7.60;;
30398;SDS011;17195;50.838;7.214;2023-05-14T03:20:07;8.77;;;7.88;;
30398;SDS011;17195;50.838;7.214;2023-05-14T03:22:33;8.75;;;7.80;;
30398;SDS011;17195;50.838;7.214;2023-05-14T03:24:58;9.52;;;7.75;;
30398;SDS011;17195;50.838;7.214;2023-05-14T03:27:24;10.32;;;7.38;;
30398;SDS011;17195;50.838;7.214;2023-05-14T03:29:52;8.90;;;7.68;;
30398;SDS011;17195;50.838;7.214;2023-05-14T03:32:18;8.43;;;7.45;;
30398;SDS011;17195;50.838;7.214;2023-05-14T03:34:43;10.77;;;8.23;;
30398;SDS011;17195;50.838;7.214;2023-05-14T03:37:09;11.02;;;7.78;;
30398;SDS011;17195;50.838;7.214;2023-05-14T03:39:35;8.13;;;7.32;;
30398;SDS011;17195;50.838;7.214;2023-05-14T03:42:00;8.20;;;7.05;;
30398;SDS011;17195;50.838;7.214;2023-05-14T03:44:26;10.93;;;7.82;;
30398;SDS011;17195;50.838;7.214;2023-05-14T03:46:52;10.75;;;8.27;;
30398;SDS011;17195;50.838;7.214;2023-05-14T03:49:17;9.40;;;7.72;;
30398;SDS011;17195;50.838;7.214;2023-05-14T03:51:43;10.77;;;7.70;;
30398;SDS011;17195;50.838;7.214;2023-05-14T03:54:09;12.38;;;8.20;;
30398;SDS011;17195;50.838;7.214;2023-05-14T03:56:34;8.75;;;7.28;;
30398;SDS011;17195;50.838;7.214;2023-05-14T03:59:00;11.20;;;8.38;;
30398;SDS011;17195;50.838;7.214;2023-05-14T04:01:26;9.20;;;7.93;;
30398;SDS011;17195;50.838;7.214;2023-05-14T04:03:51;8.75;;;7.65;;
30398;SDS011;17195;50.838;7.214;2023-05-14T04:06:17;9.45;;;7.63;;
30398;SDS011;17195;50.838;7.214;2023-05-14T04:08:43;8.10;;;7.30;;
30398;SDS011;17195;50.838;7.214;2023-05-14T04:11:08;8.68;;;6.95;;
30398;SDS011;17195;50.838;7.214;2023-05-14T04:13:34;10.57;;;7.55;;
30398;SDS011;17195;50.838;7.214;2023-05-14T04:15:59;8.15;;;7.35;;
30398;SDS011;17195;50.838;7.214;2023-05-14T04:18:25;8.88;;;7.20;;
30398;SDS011;17195;50.838;7.214;2023-05-14T04:20:50;10.02;;;7.05;;
30398;SDS011;17195;50.838;7.214;2023-05-14T04:23:16;9.07;;;7.38;;
30398;SDS011;17195;50.838;7.214;2023-05-14T04:25:42;10.10;;;7.60;;
30398;SDS011;17195;50.838;7.214;2023-05-14T04:28:07;8.48;;;7.40;;
30398;SDS011;17195;50.838;7.214;2023-05-14T04:30:33;8.88;;;7.60;;
30398;SDS011;17195;50.838;7.214;2023-05-14T04:32:59;9.95;;;7.85;;
30398;SDS011;17195;50.838;7.214;2023-05-14T04:35:25;9.60;;;7.40;;
30398;SDS011;17195;50.838;7.214;2023-05-14T04:37:50;7.93;;;7.15;;
30398;SDS011;17195;50.838;7.214;2023-05-14T04:40:16;7.97;;;7.13;;
30398;SDS011;17195;50.838;7.214;2023-05-14T04:42:42;9.75;;;7.82;;
30398;SDS011;17195;50.838;7.214;2023-05-14T04:45:08;7.63;;;6.93;;
30398;SDS011;17195;50.838;7.214;2023-05-14T04:47:33;8.55;;;7.10;;
30398;SDS011;17195;50.838;7.214;2023-05-14T04:49:59;7.85;;;7.00;;
30398;SDS011;17195;50.838;7.214;2023-05-14T04:52:25;8.02;;;7.22;;
30398;SDS011;17195;50.838;7.214;2023-05-14T04:54:51;12.32;;;8.02;;
30398;SDS011;17195;50.838;7.214;2023-05-14T04:57:16;9.43;;;7.25;;
30398;SDS011;17195;50.838;7.214;2023-05-14T04:59:42;8.63;;;7.75;;
30398;SDS011;17195;50.838;7.214;2023-05-14T05:02:07;8.60;;;7.80;;
30398;SDS011;17195;50.838;7.214;2023-05-14T05:04:33;9.02;;;7.50;;
30398;SDS011;17195;50.838;7.214;2023-05-14T05:06:59;8.45;;;7.65;;
30398;SDS011;17195;50.838;7.214;2023-05-14T05:09:24;8.90;;;7.18;;
30398;SDS011;17195;50.838;7.214;2023-05-14T05:11:50;9.85;;;7.35;;
30398;SDS011;17195;50.838;7.214;2023-05-14T05:14:15;9.55;;;7.82;;
30398;SDS011;17195;50.838;7.214;2023-05-14T05:16:41;8.40;;;7.30;;
30398;SDS011;17195;50.838;7.214;2023-05-14T05:19:07;8.68;;;7.78;;
30398;SDS011;17195;50.838;7.214;2023-05-14T05:21:33;10.93;;;7.65;;
30398;SDS011;17195;50.838;7.214;2023-05-14T05:23:59;10.18;;;7.43;;
30398;SDS011;17195;50.838;7.214;2023-05-14T05:26:25;9.50;;;7.47;;
30398;SDS011;17195;50.838;7.214;2023-05-14T05:28:51;8.70;;;7.30;;
30398;SDS011;17195;50.838;7.214;2023-05-14T05:31:16;9.68;;;7.75;;
30398;SDS011;17195;50.838;7.214;2023-05-14T05:33:42;10.02;;;7.75;;
30398;SDS011;17195;50.838;7.214;2023-05-14T05:36:08;8.07;;;7.28;;
30398;SDS011;17195;50.838;7.214;2023-05-14T05:38:33;8.48;;;7.65;;
30398;SDS011;17195;50.838;7.214;2023-05-14T05:40:59;8.38;;;7.57;;
30398;SDS011;17195;50.838;7.214;2023-05-14T05:43:25;15.52;;;8.07;;
30398;SDS011;17195;50.838;7.214;2023-05-14T05:45:52;11.30;;;8.43;;
30398;SDS011;17195;50.838;7.214;2023-05-14T05:48:18;10.75;;;8.32;;
30398;SDS011;17195;50.838;7.214;2023-05-14T05:50:45;11.20;;;9.02;;
30398;SDS011;17195;50.838;7.214;2023-05-14T05:53:11;10.10;;;8.60;;
30398;SDS011;17195;50.838;7.214;2023-05-14T05:55:37;13.15;;;8.43;;
30398;SDS011;17195;50.838;7.214;2023-05-14T05:58:03;10.32;;;9.10;;
30398;SDS011;17195;50.838;7.214;2023-05-14T06:00:28;9.25;;;8.35;;
30398;SDS011;17195;50.838;7.214;2023-05-14T06:02:55;8.80;;;7.80;;
30398;SDS011;17195;50.838;7.214;2023-05-14T06:05:20;8.98;;;8.07;;
30398;SDS011;17195;50.838;7.214;2023-05-14T06:07:46;11.13;;;10.02;;
30398;SDS011;17195;50.838;7.214;2023-05-14T06:10:11;9.13;;;7.95;;
30398;SDS011;17195;50.838;7.214;2023-05-14T06:12:37;10.65;;;9.25;;
30398;SDS011;17195;50.838;7.214;2023-05-14T06:15:02;10.48;;;8.93;;
30398;SDS011;17195;50.838;7.214;2023-05-14T06:17:28;9.27;;;8.30;;
30398;SDS011;17195;50.838;7.214;2023-05-14T06:19:54;8.93;;;8.02;;
30398;SDS011;17195;50.838;7.214;2023-05-14T06:22:19;9.18;;;8.27;;
30398;SDS011;17195;50.838;7.214;2023-05-14T06:24:46;8.98;;;8.07;;
30398;SDS011;17195;50.838;7.214;2023-05-14T06:27:12;9.02;;;8.13;;
30398;SDS011;17195;50.838;7.214;2023-05-14T06:29:37;8.75;;;7.85;;
30398;SDS011;17195;50.838;7.214;2023-05-14T06:32:03;9.57;;;8.60;;
30398;SDS011;17195;50.838;7.214;2023-05-14T06:34:29;8.57;;;7.78;;
30398;SDS011;17195;50.838;7.214;2023-05-14T06:36:55;9.27;;;7.68;;
30398;SDS011;17195;50.838;7.214;2023-05-14T06:39:21;9.82;;;8.82;;
30398;SDS011;17195;50.838;7.214;2023-05-14T06:41:48;8.73;;;7.90;;
30398;SDS011;17195;50.838;7.214;2023-05-14T06:44:14;12.90;;;8.15;;
30398;SDS011;17195;50.838;7.214;2023-05-14T06:46:40;11.85;;;7.70;;
30398;SDS011;17195;50.838;7.214;2023-05-14T06:49:06;8.55;;;7.43;;
30398;SDS011;17195;50.838;7.214;2023-05-14T06:51:31;9.95;;;7.65;;
30398;SDS011;17195;50.838;7.214;2023-05-14T06:53:57;10.75;;;7.53;;
30398;SDS011;17195;50.838;7.214;2023-05-14T06:56:23;8.65;;;7.40;;
30398;SDS011;17195;50.838;7.214;2023-05-14T06:58:48;9.57;;;6.90;;
30398;SDS011;17195;50.838;7.214;2023-05-14T07:01:15;10.32;;;7.57;;
30398;SDS011;17195;50.838;7.214;2023-05-14T07:03:40;7.68;;;6.75;;
30398;SDS011;17195;50.838;7.214;2023-05-14T07:06:06;8.10;;;7.30;;
30398;SDS011;17195;50.838;7.214;2023-05-14T07:08:32;11.35;;;7.15;;
30398;SDS011;17195;50.838;7.214;2023-05-14T07:10:57;8.10;;;7.30;;
30398;SDS011;17195;50.838;7.214;2023-05-14T07:13:23;11.73;;;8.00;;
30398;SDS011;17195;50.838;7.214;2023-05-14T07:15:50;8.05;;;7.35;;
30398;SDS011;17195;50.838;7.214;2023-05-14T07:18:16;9.25;;;7.47;;
30398;SDS011;17195;50.838;7.214;2023-05-14T07:20:42;8.05;;;7.20;;
30398;SDS011;17195;50.838;7.214;2023-05-14T07:23:08;9.07;;;6.85;;
30398;SDS011;17195;50.838;7.214;2023-05-14T07:25:33;7.85;;;6.55;;
30398;SDS011;17195;50.838;7.214;2023-05-14T07:27:59;8.68;;;6.93;;
30398;SDS011;17195;50.838;7.214;2023-05-14T07:30:24;8.73;;;6.70;;
30398;SDS011;17195;50.838;7.214;2023-05-14T07:32:50;9.43;;;6.97;;
30398;SDS011;17195;50.838;7.214;2023-05-14T07:35:15;7.53;;;6.72;;
30398;SDS011;17195;50.838;7.214;2023-05-14T07:37:41;7.38;;;6.10;;
30398;SDS011;17195;50.838;7.214;2023-05-14T07:40:07;7.18;;;6.47;;
30398;SDS011;17195;50.838;7.214;2023-05-14T07:42:33;7.45;;;5.78;;
30398;SDS011;17195;50.838;7.214;2023-05-14T07:45:00;6.40;;;5.80;;
30398;SDS011;17195;50.838;7.214;2023-05-14T07:47:26;6.38;;;5.70;;
30398;SDS011;17195;50.838;7.214;2023-05-14T07:49:55;7.70;;;6.03;;
30398;SDS011;17195;50.838;7.214;2023-05-14T07:52:21;6.15;;;5.20;;
30398;SDS011;17195;50.838;7.214;2023-05-14T07:54:47;6.20;;;5.60;;
30398;SDS011;17195;50.838;7.214;2023-05-14T07:57:14;6.35;;;5.75;;
30398;SDS011;17195;50.838;7.214;2023-05-14T07:59:40;8.05;;;5.90;;
30398;SDS011;17195;50.838;7.214;2023-05-14T08:02:06;7.78;;;5.53;;
30398;SDS011;17195;50.838;7.214;2023-05-14T08:04:34;6.22;;;5.25;;
30398;SDS011;17195;50.838;7.214;2023-05-14T08:07:03;6.82;;;5.85;;
30398;SDS011;17195;50.838;7.214;2023-05-14T08:09:29;6.07;;;5.10;;
30398;SDS011;17195;50.838;7.214;2023-05-14T08:11:55;6.88;;;5.68;;
30398;SDS011;17195;50.838;7.214;2023-05-14T08:14:21;9.57;;;5.68;;
30398;SDS011;17195;50.838;7.214;2023-05-14T08:16:47;6.43;;;5.20;;
30398;SDS011;17195;50.838;7.214;2023-05-14T08:19:13;8.95;;;5.28;;
30398;SDS011;17195;50.838;7.214;2023-05-14T08:21:39;7.32;;;4.97;;
30398;SDS011;17195;50.838;7.214;2023-05-14T08:24:05;7.05;;;5.40;;
30398;SDS011;17195;50.838;7.214;2023-05-14T08:26:31;5.78;;;5.03;;
30398;SDS011;17195;50.838;7.214;2023-05-14T08:28:56;6.53;;;5.82;;
30398;SDS011;17195;50.838;7.214;2023-05-14T08:31:22;5.85;;;5.25;;
30398;SDS011;17195;50.838;7.214;2023-05-14T08:33:47;5.82;;;5.00;;
30398;SDS011;17195;50.838;7.214;2023-05-14T08:36:13;7.28;;;5.45;;
30398;SDS011;17195;50.838;7.214;2023-05-14T08:38:38;6.25;;;5.20;;
30398;SDS011;17195;50.838;7.214;2023-05-14T08:41:04;11.55;;;5.45;;
30398;SDS011;17195;50.838;7.214;2023-05-14T08:43:42;4.90;;;4.50;;
30398;SDS011;17195;50.838;7.214;2023-05-14T08:46:13;5.35;;;4.85;;
30398;SDS011;17195;50.838;7.214;2023-05-14T08:48:41;5.70;;;4.50;;
30398;SDS011;17195;50.838;7.214;2023-05-14T08:51:07;4.97;;;4.43;;
30398;SDS011;17195;50.838;7.214;2023-05-14T08:53:33;5.00;;;4.47;;
30398;SDS011;17195;50.838;7.214;2023-05-14T08:56:02;6.25;;;4.72;;
30398;SDS011;17195;50.838;7.214;2023-05-14T08:58:29;7.68;;;4.70;;
30398;SDS011;17195;50.838;7.214;2023-05-14T09:00:54;7.53;;;4.55;;
30398;SDS011;17195;50.838;7.214;2023-05-14T09:03:20;6.07;;;5.00;;
30398;SDS011;17195;50.838;7.214;2023-05-14T09:05:48;6.60;;;5.00;;
30398;SDS011;17195;50.838;7.214;2023-05-14T09:08:15;6.97;;;4.70;;
30398;SDS011;17195;50.838;7.214;2023-05-14T09:10:41;6.45;;;4.10;;
30398;SDS011;17195;50.838;7.214;2023-05-14T09:13:07;7.03;;;4.00;;
30398;SDS011;17195;50.838;7.214;2023-05-14T09:15:35;5.00;;;4.30;;
30398;SDS011;17195;50.838;7.214;2023-05-14T09:18:05;4.85;;;4.45;;
30398;SDS011;17195;50.838;7.214;2023-05-14T09:20:30;4.78;;;4.38;;
30398;SDS011;17195;50.838;7.214;2023-05-14T09:22:57;5.75;;;4.47;;
30398;SDS011;17195;50.838;7.214;2023-05-14T09:25:27;6.93;;;4.20;;
30398;SDS011;17195;50.838;7.214;2023-05-14T09:27:56;7.40;;;5.25;;
30398;SDS011;17195;50.838;7.214;2023-05-14T09:30:23;7.75;;;3.80;;
30398;SDS011;17195;50.838;7.214;2023-05-14T09:32:52;10.68;;;5.03;;
30398;SDS011;17195;50.838;7.214;2023-05-14T09:35:19;4.80;;;4.30;;
30398;SDS011;17195;50.838;7.214;2023-05-14T09:37:49;4.93;;;3.97;;
30398;SDS011;17195;50.838;7.214;2023-05-14T09:40:16;4.72;;;4.32;;
30398;SDS011;17195;50.838;7.214;2023-05-14T09:42:43;5.82;;;3.97;;
30398;SDS011;17195;50.838;7.214;2023-05-14T09:45:09;5.03;;;3.33;;
30398;SDS011;17195;50.838;7.214;2023-05-14T09:47:35;7.22;;;4.05;;
30398;SDS011;17195;50.838;7.214;2023-05-14T09:50:02;4.22;;;3.83;;
30398;SDS011;17195;50.838;7.214;2023-05-14T09:52:28;4.60;;;4.20;;
30398;SDS011;17195;50.838;7.214;2023-05-14T09:54:54;4.15;;;3.75;;
30398;SDS011;17195;50.838;7.214;2023-05-14T09:57:20;4.18;;;3.88;;
30398;SDS011;17195;50.838;7.214;2023-05-14T09:59:46;3.97;;;3.58;;
30398;SDS011;17195;50.838;7.214;2023-05-14T10:02:45;3.80;;;3.45;;
30398;SDS011;17195;50.838;7.214;2023-05-14T10:05:05;6.20;;;3.15;;
30398;SDS011;17195;50.838;7.214;2023-05-14T10:07:46;3.40;;;3.03;;
30398;SDS011;17195;50.838;7.214;2023-05-14T10:10:20;3.65;;;3.25;;
30398;SDS011;17195;50.838;7.214;2023-05-14T10:12:57;3.80;;;3.40;;
30398;SDS011;17195;50.838;7.214;2023-05-14T10:15:34;6.40;;;3.00;;
30398;SDS011;17195;50.838;7.214;2023-05-14T10:18:09;6.20;;;3.00;;
30398;SDS011;17195;50.838;7.214;2023-05-14T10:20:37;4.72;;;2.92;;
30398;SDS011;17195;50.838;7.214;2023-05-14T10:23:05;5.45;;;3.28;;
30398;SDS011;17195;50.838;7.214;2023-05-14T10:25:32;3.10;;;2.90;;
30398;SDS011;17195;50.838;7.214;2023-05-14T10:27:59;5.50;;;2.83;;
30398;SDS011;17195;50.838;7.214;2023-05-14T10:30:25;4.25;;;3.00;;
30398;SDS011;17195;50.838;7.214;2023-05-14T10:33:33;3.58;;;2.70;;
30398;SDS011;17195;50.838;7.214;2023-05-14T10:36:02;2.80;;;2.60;;
30398;SDS011;17195;50.838;7.214;2023-05-14T10:38:31;4.75;;;2.53;;
30398;SDS011;17195;50.838;7.214;2023-05-14T10:40:58;3.83;;;2.80;;
30398;SDS011;17195;50.838;7.214;2023-05-14T10:43:45;2.45;;;2.25;;
30398;SDS011;17195;50.838;7.214;2023-05-14T10:46:12;3.53;;;2.80;;
30398;SDS011;17195;50.838;7.214;2023-05-14T10:48:39;3.63;;;2.25;;
30398;SDS011;17195;50.838;7.214;2023-05-14T10:51:06;3.08;;;2.60;;
30398;SDS011;17195;50.838;7.214;2023-05-14T10:53:38;2.50;;;2.30;;
30398;SDS011;17195;50.838;7.214;2023-05-14T10:56:05;5.80;;;2.78;;
30398;SDS011;17195;50.838;7.214;2023-05-14T10:58:36;3.45;;;2.20;;
30398;SDS011;17195;50.838;7.214;2023-05-14T11:01:02;6.25;;;3.10;;
30398;SDS011;17195;50.838;7.214;2023-05-14T11:03:30;2.75;;;2.15;;
30398;SDS011;17195;50.838;7.214;2023-05-14T11:06:02;2.63;;;2.42;;
30398;SDS011;17195;50.838;7.214;2023-05-14T11:08:28;2.50;;;2.30;;
30398;SDS011;17195;50.838;7.214;2023-05-14T11:10:54;3.28;;;2.22;;
30398;SDS011;17195;50.838;7.214;2023-05-14T11:13:21;2.58;;;2.38;;
30398;SDS011;17195;50.838;7.214;2023-05-14T11:15:46;5.70;;;2.90;;
30398;SDS011;17195;50.838;7.214;2023-05-14T11:18:13;3.20;;;2.90;;
30398;SDS011;17195;50.838;7.214;2023-05-14T11:20:50;2.63;;;2.40;;
30398;SDS011;17195;50.838;7.214;2023-05-14T11:23:16;3.47;;;2.67;;
30398;SDS011;17195;50.838;7.214;2023-05-14T11:25:42;3.67;;;3.38;;
30398;SDS011;17195;50.838;7.214;2023-05-14T11:28:07;3.67;;;3.25;;
30398;SDS011;17195;50.838;7.214;2023-05-14T11:30:33;6.60;;;3.42;;
30398;SDS011;17195;50.838;7.214;2023-05-14T11:32:59;3.20;;;3.00;;
30398;SDS011;17195;50.838;7.214;2023-05-14T11:35:24;5.28;;;3.42;;
30398;SDS011;17195;50.838;7.214;2023-05-14T11:37:51;3.92;;;2.90;;
30398;SDS011;17195;50.838;7.214;2023-05-14T11:40:16;6.55;;;2.90;;
30398;SDS011;17195;50.838;7.214;2023-05-14T11:42:42;3.75;;;2.97;;
30398;SDS011;17195;50.838;7.214;2023-05-14T11:45:11;3.00;;;2.70;;
30398;SDS011;17195;50.838;7.214;2023-05-14T11:47:39;3.58;;;3.20;;
30398;SDS011;17195;50.838;7.214;2023-05-14T11:50:05;4.15;;;3.38;;
30398;SDS011;17195;50.838;7.214;2023-05-14T11:52:36;3.35;;;3.08;;
30398;SDS011;17195;50.838;7.214;2023-05-14T11:55:03;3.50;;;3.08;;
30398;SDS011;17195;50.838;7.214;2023-05-14T11:57:30;5.97;;;3.13;;
30398;SDS011;17195;50.838;7.214;2023-05-14T11:59:56;4.10;;;3.45;;
30398;SDS011;17195;50.838;7.214;2023-05-14T12:02:22;5.20;;;3.00;;
30398;SDS011;17195;50.838;7.214;2023-05-14T12:04:50;3.33;;;3.03;;
30398;SDS011;17195;50.838;7.214;2023-05-14T12:07:17;3.25;;;2.95;;
30398;SDS011;17195;50.838;7.214;2023-05-14T12:09:44;6.07;;;3.30;;
30398;SDS011;17195;50.838;7.214;2023-05-14T12:12:14;4.75;;;3.40;;
30398;SDS011;17195;50.838;7.214;2023-05-14T12:14:42;6.00;;;3.38;;
30398;SDS011;17195;50.838;7.214;2023-05-14T12:17:16;3.65;;;3.10;;
30398;SDS011;17195;50.838;7.214;2023-05-14T12:19:43;5.68;;;3.63;;
30398;SDS011;17195;50.838;7.214;2023-05-14T12:22:12;4.90;;;3.42;;
30398;SDS011;17195;50.838;7.214;2023-05-14T12:24:40;6.95;;;3.58;;
30398;SDS011;17195;50.838;7.214;2023-05-14T12:27:08;4.13;;;3.35;;
30398;SDS011;17195;50.838;7.214;2023-05-14T12:29:37;3.70;;;3.13;;
30398;SDS011;17195;50.838;7.214;2023-05-14T12:32:06;4.22;;;3.50;;
30398;SDS011;17195;50.838;7.214;2023-05-14T12:34:33;5.57;;;3.10;;
30398;SDS011;17195;50.838;7.214;2023-05-14T12:36:59;9.93;;;4.50;;
30398;SDS011;17195;50.838;7.214;2023-05-14T12:39:25;4.88;;;3.70;;
30398;SDS011;17195;50.838;7.214;2023-05-14T12:41:51;3.80;;;3.50;;
30398;SDS011;17195;50.838;7.214;2023-05-14T12:44:17;4.22;;;3.60;;
30398;SDS011;17195;50.838;7.214;2023-05-14T12:46:42;4.97;;;3.60;;
30398;SDS011;17195;50.838;7.214;2023-05-14T12:49:08;5.03;;;3.67;;
30398;SDS011;17195;50.838;7.214;2023-05-14T12:51:34;4.60;;;3.25;;
30398;SDS011;17195;50.838;7.214;2023-05-14T12:54:00;3.45;;;3.15;;
30398;SDS011;17195;50.838;7.214;2023-05-14T12:56:25;3.40;;;3.20;;
30398;SDS011;17195;50.838;7.214;2023-05-14T12:58:55;5.72;;;3.38;;
30398;SDS011;17195;50.838;7.214;2023-05-14T13:01:21;3.97;;;3.20;;
30398;SDS011;17195;50.838;7.214;2023-05-14T13:03:47;4.65;;;3.08;;
30398;SDS011;17195;50.838;7.214;2023-05-14T13:06:13;3.88;;;3.50;;
30398;SDS011;17195;50.838;7.214;2023-05-14T13:08:38;3.88;;;2.70;;
30398;SDS011;17195;50.838;7.214;2023-05-14T13:11:04;4.03;;;3.05;;
30398;SDS011;17195;50.838;7.214;2023-05-14T13:13:30;4.40;;;2.85;;
30398;SDS011;17195;50.838;7.214;2023-05-14T13:15:55;3.15;;;2.83;;
30398;SDS011;17195;50.838;7.214;2023-05-14T13:18:21;4.28;;;2.83;;
30398;SDS011;17195;50.838;7.214;2023-05-14T13:20:46;3.75;;;3.17;;
30398;SDS011;17195;50.838;7.214;2023-05-14T13:23:12;4.47;;;3.13;;
30398;SDS011;17195;50.838;7.214;2023-05-14T13:25:38;3.40;;;3.10;;
30398;SDS011;17195;50.838;7.214;2023-05-14T13:28:04;3.83;;;3.08;;
30398;SDS011;17195;50.838;7.214;2023-05-14T13:30:30;3.78;;;2.95;;
30398;SDS011;17195;50.838;7.214;2023-05-14T13:32:56;4.97;;;3.70;;
30398;SDS011;17195;50.838;7.214;2023-05-14T13:35:23;3.90;;;3.00;;
30398;SDS011;17195;50.838;7.214;2023-05-14T13:37:49;4.38;;;2.80;;
30398;SDS011;17195;50.838;7.214;2023-05-14T13:40:14;4.85;;;3.10;;
30398;SDS011;17195;50.838;7.214;2023-05-14T13:42:40;3.60;;;3.00;;
30398;SDS011;17195;50.838;7.214;2023-05-14T13:45:06;2.65;;;2.45;;
30398;SDS011;17195;50.838;7.214;2023-05-14T13:47:32;3.33;;;2.85;;
30398;SDS011;17195;50.838;7.214;2023-05-14T13:49:58;2.95;;;2.75;;
30398;SDS011;17195;50.838;7.214;2023-05-14T13:52:24;5.57;;;2.55;;
30398;SDS011;17195;50.838;7.214;2023-05-14T13:54:50;3.03;;;2.67;;
30398;SDS011;17195;50.838;7.214;2023-05-14T13:57:16;7.85;;;2.75;;
30398;SDS011;17195;50.838;7.214;2023-05-14T13:59:43;5.82;;;2.55;;
30398;SDS011;17195;50.838;7.214;2023-05-14T14:02:10;5.00;;;2.50;;
30398;SDS011;17195;50.838;7.214;2023-05-14T14:04:36;3.90;;;2.50;;
30398;SDS011;17195;50.838;7.214;2023-05-14T14:07:01;3.97;;;2.30;;
30398;SDS011;17195;50.838;7.214;2023-05-14T14:09:27;3.75;;;2.63;;
30398;SDS011;17195;50.838;7.214;2023-05-14T14:11:52;4.85;;;2.53;;
30398;SDS011;17195;50.838;7.214;2023-05-14T14:14:18;2.30;;;2.10;;
30398;SDS011;17195;50.838;7.214;2023-05-14T14:16:44;2.65;;;2.20;;
30398;SDS011;17195;50.838;7.214;2023-05-14T14:19:12;3.78;;;2.38;;
30398;SDS011;17195;50.838;7.214;2023-05-14T14:21:38;3.30;;;2.00;;
30398;SDS011;17195;50.838;7.214;2023-05-14T14:24:06;2.67;;;2.20;;
30398;SDS011;17195;50.838;7.214;2023-05-14T14:26:32;2.10;;;1.88;;
30398;SDS011;17195;50.838;7.214;2023-05-14T14:28:57;2.33;;;1.95;;
30398;SDS011;17195;50.838;7.214;2023-05-14T14:31:23;3.65;;;1.80;;
30398;SDS011;17195;50.838;7.214;2023-05-14T14:33:49;2.53;;;1.75;;
30398;SDS011;17195;50.838;7.214;2023-05-14T14:36:18;2.50;;;2.05;;
30398;SDS011;17195;50.838;7.214;2023-05-14T14:38:43;2.42;;;1.80;;
30398;SDS011;17195;50.838;7.214;2023-05-14T14:41:12;5.22;;;1.92;;
30398;SDS011;17195;50.838;7.214;2023-05-14T14:43:38;2.05;;;1.88;;
30398;SDS011;17195;50.838;7.214;2023-05-14T14:46:05;1.80;;;1.67;;
30398;SDS011;17195;50.838;7.214;2023-05-14T14:48:33;2.15;;;1.63;;
30398;SDS011;17195;50.838;7.214;2023-05-14T14:51:03;4.22;;;1.40;;